Time;durP1;ratioP1;P1;durP2;ratioP2;P2;SDS_P1;SDS_P2;PMS_P1;PMS_P2;Temp;Humidity;BMP_temperature;BMP_pressure;BME280_temperature;BME280_humidity;BME280_pressure;Samples;Min_cycle;Max_cycle;Signal;HPM_P1;HPM_P2
2021/04/09 00:01:58;;;;;;;7.10;4.15;;;7.20;62.80;;;;;;4972132;28;20460;-68
2021/04/09 00:04:24;;;;;;;8.13;4.72;;;7.20;62.90;;;;;;4972560;28;20533;-68
2021/04/09 00:06:51;;;;;;;7.75;4.10;;;7.20;63.10;;;;;;4970824;28;20026;-69
2021/04/09 00:09:18;;;;;;;7.32;4.22;;;7.10;63.20;;;;;;4971742;28;20075;-68
2021/04/09 00:11:44;;;;;;;9.13;4.40;;;7.10;63.30;;;;;;4971586;28;20042;-68
2021/04/09 00:14:12;;;;;;;7.18;3.92;;;7.00;63.10;;;;;;4972385;28;20019;-69
2021/04/09 00:16:38;;;;;;;8.82;4.15;;;7.00;63.00;;;;;;4972614;28;20031;-68
2021/04/09 00:19:17;;;;;;;7.90;4.75;;;7.00;62.90;;;;;;4975182;28;20538;-68
2021/04/09 00:21:44;;;;;;;7.40;4.25;;;7.00;63.00;;;;;;4975151;28;20077;-68
2021/04/09 00:24:10;;;;;;;7.50;3.85;;;6.90;63.10;;;;;;4975890;28;20086;-68
2021/04/09 00:26:36;;;;;;;9.63;4.30;;;7.00;63.40;;;;;;4974586;28;20034;-69
2021/04/09 00:29:03;;;;;;;8.30;4.47;;;7.00;63.50;;;;;;4973243;28;20049;-68
2021/04/09 00:31:28;;;;;;;8.40;4.55;;;6.90;63.70;;;;;;4975444;28;20533;-67
2021/04/09 00:33:54;;;;;;;9.68;4.25;;;6.90;63.80;;;;;;4975626;28;20109;-68
2021/04/09 00:36:20;;;;;;;9.40;3.92;;;6.90;63.90;;;;;;4975353;28;20022;-68
2021/04/09 00:38:46;;;;;;;7.88;4.63;;;6.90;63.70;;;;;;4973920;28;20638;-68
2021/04/09 00:41:13;;;;;;;7.70;4.15;;;6.80;63.80;;;;;;4975101;28;20022;-68
2021/04/09 00:43:39;;;;;;;8.52;4.38;;;6.90;63.90;;;;;;4974632;28;20034;-69
2021/04/09 00:46:07;;;;;;;7.55;4.18;;;6.80;64.10;;;;;;4975136;28;20446;-68
2021/04/09 00:48:32;;;;;;;6.70;4.50;;;6.80;64.10;;;;;;4974256;28;20114;-68
2021/04/09 00:50:58;;;;;;;7.85;4.60;;;6.80;64.20;;;;;;4975557;28;20102;-68
2021/04/09 00:53:26;;;;;;;9.35;4.57;;;6.80;64.30;;;;;;4974334;28;20034;-68
2021/04/09 00:55:52;;;;;;;12.27;4.43;;;6.70;64.40;;;;;;4975263;28;20034;-69
2021/04/09 00:58:18;;;;;;;7.85;4.07;;;6.80;64.30;;;;;;4973916;28;20055;-68
2021/04/09 01:00:44;;;;;;;11.68;4.80;;;6.90;64.20;;;;;;4974312;28;20034;-68
2021/04/09 01:03:09;;;;;;;8.98;4.47;;;6.80;64.30;;;;;;4973769;28;20086;-68
2021/04/09 01:05:35;;;;;;;8.82;4.43;;;6.80;64.20;;;;;;4973826;28;20081;-68
2021/04/09 01:08:02;;;;;;;10.95;4.72;;;6.80;64.10;;;;;;4974276;28;20031;-68
2021/04/09 01:10:29;;;;;;;7.80;4.75;;;6.70;64.40;;;;;;4974666;28;20421;-68
2021/04/09 01:12:55;;;;;;;8.30;4.18;;;6.70;64.30;;;;;;4974347;28;20031;-67
2021/04/09 01:15:21;;;;;;;8.80;4.40;;;6.80;64.30;;;;;;4974301;28;20034;-67
2021/04/09 01:17:59;;;;;;;8.43;4.97;;;6.70;64.40;;;;;;4974283;28;20031;-67
2021/04/09 01:20:49;;;;;;;8.25;4.80;;;6.70;64.30;;;;;;4966517;28;20039;-67
2021/04/09 01:23:31;;;;;;;8.07;4.68;;;6.60;64.90;;;;;;4974474;28;20081;-68
2021/04/09 01:26:05;;;;;;;8.85;3.97;;;6.50;65.20;;;;;;4973801;28;20037;-68
2021/04/09 01:29:08;;;;;;;7.25;3.80;;;6.20;66.20;;;;;;4974043;28;20503;-67
2021/04/09 01:31:58;;;;;;;8.52;4.15;;;6.00;66.60;;;;;;4955178;29;20026;-68
2021/04/09 01:34:27;;;;;;;7.80;4.25;;;5.90;67.00;;;;;;4958109;28;20030;-68
2021/04/09 01:36:55;;;;;;;6.63;4.20;;;5.90;66.70;;;;;;4973246;28;20050;-68
2021/04/09 01:39:27;;;;;;;12.23;4.68;;;6.20;66.00;;;;;;4960227;28;20039;-68
2021/04/09 01:41:54;;;;;;;9.55;4.70;;;6.10;66.10;;;;;;4974064;28;20038;-67
2021/04/09 01:44:26;;;;;;;9.35;4.55;;;6.10;66.20;;;;;;4973840;28;20386;-67
2021/04/09 01:46:55;;;;;;;12.65;4.93;;;6.00;66.50;;;;;;4973724;28;20041;-68
2021/04/09 01:49:23;;;;;;;7.40;4.30;;;5.90;66.60;;;;;;4972907;28;20074;-68
2021/04/09 01:51:50;;;;;;;7.72;4.13;;;6.00;66.30;;;;;;4974075;28;20444;-67
2021/04/09 01:54:19;;;;;;;6.95;3.78;;;6.20;66.10;;;;;;4973452;28;20513;-68
2021/04/09 01:56:46;;;;;;;7.78;4.50;;;6.10;66.70;;;;;;4973170;28;20046;-68
2021/04/09 01:59:13;;;;;;;13.77;4.38;;;6.10;66.00;;;;;;4972663;28;20077;-67
2021/04/09 02:01:40;;;;;;;8.98;4.07;;;6.20;65.60;;;;;;4972775;28;20050;-68
2021/04/09 02:04:07;;;;;;;8.90;4.18;;;6.10;66.00;;;;;;4973616;28;20491;-67
2021/04/09 02:06:38;;;;;;;7.38;4.22;;;6.00;66.20;;;;;;4973232;28;20035;-67
2021/04/09 02:09:05;;;;;;;7.88;4.63;;;5.90;66.70;;;;;;4973245;28;20046;-67
2021/04/09 02:11:34;;;;;;;7.43;4.07;;;5.90;67.00;;;;;;4972569;28;20030;-68
2021/04/09 02:14:02;;;;;;;8.63;3.90;;;5.80;67.10;;;;;;4972865;28;20055;-68
2021/04/09 02:16:29;;;;;;;6.57;3.63;;;5.80;67.40;;;;;;4972686;28;20038;-68
2021/04/09 02:18:56;;;;;;;8.55;4.53;;;5.70;67.40;;;;;;4972472;28;20031;-68
2021/04/09 02:21:21;;;;;;;9.27;4.82;;;5.60;68.20;;;;;;4972967;28;20042;-67
2021/04/09 02:23:47;;;;;;;10.98;4.53;;;5.80;67.30;;;;;;4972910;28;20037;-67
2021/04/09 02:26:13;;;;;;;7.32;4.18;;;5.70;67.60;;;;;;4973253;28;20098;-68
2021/04/09 02:28:39;;;;;;;8.40;4.22;;;5.70;67.90;;;;;;4972556;28;20112;-68
2021/04/09 02:31:06;;;;;;;8.02;4.55;;;5.60;68.10;;;;;;4972224;28;20030;-67
2021/04/09 02:33:33;;;;;;;8.57;4.80;;;5.70;67.50;;;;;;4973338;28;20027;-68
2021/04/09 02:36:05;;;;;;;5.93;4.03;;;5.60;67.60;;;;;;4972666;28;20041;-68
2021/04/09 02:38:31;;;;;;;10.18;5.57;;;5.60;67.80;;;;;;4972772;28;20482;-68
2021/04/09 02:41:00;;;;;;;6.35;4.15;;;5.60;67.70;;;;;;4972090;28;20125;-68
2021/04/09 02:43:26;;;;;;;8.52;3.78;;;5.70;67.50;;;;;;4973240;28;20019;-68
2021/04/09 02:45:55;;;;;;;8.93;4.05;;;5.70;66.60;;;;;;4972052;28;20386;-68
2021/04/09 02:48:24;;;;;;;8.25;4.25;;;5.80;67.20;;;;;;4999229;28;20385;-68
2021/04/09 02:50:50;;;;;;;11.57;4.22;;;5.60;68.00;;;;;;4972095;28;20121;-67
2021/04/09 02:53:20;;;;;;;13.10;4.55;;;5.40;68.30;;;;;;4973035;28;20102;-68
2021/04/09 02:55:48;;;;;;;7.82;4.13;;;5.30;68.50;;;;;;4972451;28;20489;-68
2021/04/09 02:58:16;;;;;;;7.65;4.25;;;5.40;68.10;;;;;;4968621;28;20022;-69
2021/04/09 03:00:49;;;;;;;7.80;4.32;;;5.60;66.80;;;;;;4986171;28;20129;-68
2021/04/09 03:03:17;;;;;;;6.65;3.97;;;5.60;67.60;;;;;;4967019;28;20041;-68
2021/04/09 03:05:44;;;;;;;9.43;4.70;;;5.40;68.10;;;;;;4965776;28;20038;-68
2021/04/09 03:08:13;;;;;;;7.47;4.50;;;5.50;68.00;;;;;;4964886;28;20023;-68
2021/04/09 03:10:39;;;;;;;8.25;4.68;;;5.40;68.20;;;;;;4965070;28;20047;-67
2021/04/09 03:13:05;;;;;;;8.70;4.70;;;5.30;68.60;;;;;;4965518;28;20047;-67
2021/04/09 03:15:44;;;;;;;8.35;4.40;;;5.10;68.90;;;;;;4965409;28;20166;-67
2021/04/09 03:18:14;;;;;;;8.13;4.40;;;5.00;69.20;;;;;;4949050;28;20046;-68
2021/04/09 03:20:41;;;;;;;7.20;4.57;;;5.00;69.00;;;;;;4964488;28;20039;-68
2021/04/09 03:23:07;;;;;;;8.35;4.97;;;5.20;68.50;;;;;;4965070;28;20038;-67
2021/04/09 03:25:33;;;;;;;8.52;4.93;;;5.10;68.90;;;;;;4965766;28;20034;-68
2021/04/09 03:27:59;;;;;;;11.15;5.30;;;5.00;69.30;;;;;;4965285;28;20023;-67
2021/04/09 03:30:25;;;;;;;10.10;4.68;;;5.10;69.00;;;;;;4965068;28;20420;-67
2021/04/09 03:32:52;;;;;;;10.68;4.78;;;5.20;68.80;;;;;;4964741;28;20030;-68
2021/04/09 03:35:18;;;;;;;8.68;5.05;;;5.10;69.00;;;;;;4965742;28;20031;-68
2021/04/09 03:37:45;;;;;;;13.80;5.22;;;4.80;70.00;;;;;;4964350;28;20027;-67
2021/04/09 03:40:11;;;;;;;7.93;4.40;;;4.50;70.90;;;;;;4964458;28;20042;-68
2021/04/09 03:42:37;;;;;;;10.63;4.45;;;4.50;71.20;;;;;;4964585;28;20472;-67
2021/04/09 03:45:07;;;;;;;10.35;4.95;;;4.60;70.50;;;;;;4965376;28;20035;-67
2021/04/09 03:47:33;;;;;;;8.07;3.92;;;4.60;70.60;;;;;;4964469;28;20106;-67
2021/04/09 03:49:59;;;;;;;7.95;3.55;;;4.60;70.80;;;;;;4964744;28;20879;-67
2021/04/09 03:52:25;;;;;;;7.55;4.45;;;4.50;71.20;;;;;;4967186;28;20022;-68
2021/04/09 03:54:51;;;;;;;8.15;4.47;;;4.40;71.60;;;;;;4968414;28;20744;-67
2021/04/09 03:57:16;;;;;;;7.05;4.30;;;4.30;71.80;;;;;;4969097;28;20042;-68
2021/04/09 03:59:42;;;;;;;7.78;4.45;;;4.40;71.60;;;;;;4949425;28;20031;-68
2021/04/09 04:02:08;;;;;;;13.90;4.80;;;4.50;70.90;;;;;;4967978;28;20034;-67
2021/04/09 04:04:33;;;;;;;10.95;4.82;;;4.60;70.80;;;;;;4967148;28;20027;-68
2021/04/09 04:06:59;;;;;;;8.77;4.75;;;4.70;70.60;;;;;;4968579;28;20035;-68
2021/04/09 04:09:25;;;;;;;9.68;5.35;;;4.60;70.70;;;;;;4968585;28;20074;-68
2021/04/09 04:11:51;;;;;;;9.23;4.30;;;4.60;70.90;;;;;;4982188;28;20117;-67
2021/04/09 04:14:17;;;;;;;10.05;4.38;;;4.30;72.20;;;;;;4968429;28;20027;-68
2021/04/09 04:16:43;;;;;;;11.10;5.10;;;4.30;72.30;;;;;;4968099;28;20042;-68
2021/04/09 04:19:09;;;;;;;8.30;4.72;;;4.50;72.10;;;;;;4968029;28;20034;-68
2021/04/09 04:21:35;;;;;;;10.93;4.15;;;4.60;71.70;;;;;;4968092;28;20042;-68
2021/04/09 04:24:00;;;;;;;9.20;4.82;;;4.50;71.90;;;;;;4968667;28;20030;-68
2021/04/09 04:26:26;;;;;;;8.18;4.30;;;4.50;71.90;;;;;;4967517;28;20113;-67
2021/04/09 04:28:53;;;;;;;7.70;4.75;;;4.60;71.60;;;;;;4967453;28;20038;-68
2021/04/09 04:31:18;;;;;;;9.50;4.68;;;4.70;70.80;;;;;;4968084;28;20042;-68
2021/04/09 04:33:44;;;;;;;9.38;4.45;;;4.50;71.40;;;;;;4967960;28;20031;-68
2021/04/09 04:36:10;;;;;;;10.38;4.75;;;4.80;71.10;;;;;;4967861;28;20030;-68
2021/04/09 04:38:36;;;;;;;8.68;4.55;;;4.60;71.10;;;;;;4967403;28;20058;-68
2021/04/09 04:41:02;;;;;;;8.63;4.85;;;4.50;71.50;;;;;;4967057;28;20037;-68
2021/04/09 04:43:28;;;;;;;7.55;4.57;;;4.40;71.70;;;;;;4967198;28;20027;-67
2021/04/09 04:45:54;;;;;;;7.80;4.38;;;4.40;71.80;;;;;;4967345;28;20133;-68
2021/04/09 04:48:19;;;;;;;6.85;4.22;;;4.40;72.20;;;;;;4967763;28;20498;-67
2021/04/09 04:50:45;;;;;;;10.48;4.78;;;4.30;72.00;;;;;;4967036;28;20038;-67
2021/04/09 04:53:11;;;;;;;7.80;4.60;;;4.40;72.40;;;;;;4967719;28;20031;-67
2021/04/09 04:55:37;;;;;;;8.65;5.00;;;4.30;72.40;;;;;;4967465;28;20493;-67
2021/04/09 04:58:02;;;;;;;7.88;5.38;;;4.20;72.80;;;;;;4966897;28;20030;-67
2021/04/09 05:00:28;;;;;;;7.32;4.10;;;4.20;73.30;;;;;;4967119;28;20051;-68
2021/04/09 05:02:54;;;;;;;10.88;5.97;;;4.30;72.70;;;;;;4966169;28;20059;-68
2021/04/09 05:05:20;;;;;;;7.03;4.30;;;4.30;72.70;;;;;;4966642;28;20023;-67
2021/04/09 05:07:47;;;;;;;7.50;4.45;;;4.30;72.30;;;;;;4966505;28;20034;-68
2021/04/09 05:10:13;;;;;;;9.77;5.13;;;4.40;72.00;;;;;;4966493;28;20072;-67
2021/04/09 05:12:39;;;;;;;7.82;4.13;;;4.40;71.90;;;;;;4967049;28;20031;-67
2021/04/09 05:15:06;;;;;;;8.73;4.25;;;4.30;71.90;;;;;;4966492;28;20030;-67
2021/04/09 05:17:32;;;;;;;8.73;4.63;;;4.40;72.70;;;;;;4966299;28;20035;-68
2021/04/09 05:19:58;;;;;;;7.30;4.15;;;4.40;72.60;;;;;;4966926;28;20053;-68
2021/04/09 05:22:24;;;;;;;9.15;4.30;;;4.40;73.00;;;;;;4967343;28;20034;-67
2021/04/09 05:24:50;;;;;;;9.30;4.63;;;4.20;73.90;;;;;;4966461;28;20478;-68
2021/04/09 05:27:16;;;;;;;8.88;4.47;;;4.30;73.70;;;;;;4972160;28;20038;-67
2021/04/09 05:29:42;;;;;;;9.38;4.97;;;4.30;73.90;;;;;;4969047;28;20371;-68
2021/04/09 05:32:09;;;;;;;9.88;5.82;;;4.40;73.60;;;;;;4969479;28;20057;-67
2021/04/09 05:34:35;;;;;;;12.43;4.97;;;4.30;73.70;;;;;;4965081;28;20062;-66
2021/04/09 05:37:02;;;;;;;11.27;5.03;;;4.30;73.80;;;;;;4966644;28;20051;-67
2021/04/09 05:39:28;;;;;;;10.48;5.72;;;4.40;73.20;;;;;;4965767;28;20620;-67
2021/04/09 05:41:53;;;;;;;9.65;5.20;;;4.70;72.50;;;;;;4966076;28;20042;-68
2021/04/09 05:44:21;;;;;;;12.23;6.05;;;4.70;72.90;;;;;;4966488;28;20434;-67
2021/04/09 05:46:47;;;;;;;8.30;4.97;;;4.70;73.00;;;;;;4966488;28;20046;-67
2021/04/09 05:49:13;;;;;;;8.70;4.57;;;4.70;73.50;;;;;;4966324;28;20023;-67
2021/04/09 05:51:39;;;;;;;7.57;4.85;;;4.60;74.80;;;;;;4965320;28;20061;-66
2021/04/09 05:54:05;;;;;;;10.95;4.80;;;4.40;73.70;;;;;;4966389;28;20050;-67
2021/04/09 05:56:30;;;;;;;13.48;4.72;;;4.50;73.10;;;;;;4966485;28;20132;-67
2021/04/09 05:58:56;;;;;;;8.48;4.13;;;4.50;73.30;;;;;;4952492;28;20390;-67
2021/04/09 06:01:22;;;;;;;10.45;4.65;;;4.60;72.70;;;;;;4952513;28;20521;-67
2021/04/09 06:03:48;;;;;;;11.90;4.63;;;4.60;73.30;;;;;;4966171;28;20034;-67
2021/04/09 06:06:14;;;;;;;8.25;4.82;;;4.60;75.30;;;;;;4965463;28;20186;-67
2021/04/09 06:08:40;;;;;;;12.88;5.20;;;4.50;75.30;;;;;;4965390;28;20115;-67
2021/04/09 06:11:05;;;;;;;7.97;4.68;;;4.40;74.80;;;;;;4966564;28;20057;-67
2021/04/09 06:13:31;;;;;;;15.50;4.88;;;4.50;75.00;;;;;;4964972;28;20023;-67
2021/04/09 06:15:57;;;;;;;18.77;5.32;;;4.60;75.50;;;;;;4965221;28;20112;-67
2021/04/09 06:18:23;;;;;;;9.88;4.85;;;4.60;76.20;;;;;;4966306;28;20023;-67
2021/04/09 06:20:49;;;;;;;8.93;4.50;;;4.50;74.60;;;;;;4965340;28;20038;-67
2021/04/09 06:23:15;;;;;;;16.63;5.20;;;4.60;76.00;;;;;;4965706;28;20042;-67
2021/04/09 06:25:41;;;;;;;11.13;4.53;;;4.60;75.80;;;;;;4965397;28;20052;-66
2021/04/09 06:28:07;;;;;;;8.73;5.05;;;4.60;75.10;;;;;;4965674;28;20182;-67
2021/04/09 06:30:33;;;;;;;7.28;4.20;;;4.70;75.60;;;;;;4965755;28;20031;-67
2021/04/09 06:32:58;;;;;;;8.20;4.10;;;4.70;77.30;;;;;;4965117;28;20027;-68
2021/04/09 06:35:24;;;;;;;9.50;4.70;;;4.70;76.10;;;;;;4965833;28;20054;-67
2021/04/09 06:37:50;;;;;;;10.32;4.97;;;4.80;75.20;;;;;;4965389;28;20489;-67
2021/04/09 06:40:16;;;;;;;13.82;4.55;;;4.80;75.10;;;;;;4965644;28;20099;-67
2021/04/09 06:42:43;;;;;;;12.60;4.68;;;5.00;74.40;;;;;;4964826;28;20042;-67
2021/04/09 06:45:09;;;;;;;10.52;4.72;;;5.10;73.70;;;;;;4965508;28;20023;-67
2021/04/09 06:47:35;;;;;;;11.13;5.10;;;5.40;72.30;;;;;;4965276;28;20106;-67
2021/04/09 06:50:02;;;;;;;11.63;4.95;;;6.40;71.10;;;;;;4965422;28;20041;-67
2021/04/09 06:52:28;;;;;;;12.85;5.22;;;7.60;67.00;;;;;;4964870;28;20031;-67
2021/04/09 06:54:55;;;;;;;11.30;4.57;;;9.00;64.40;;;;;;4965460;28;20070;-67
2021/04/09 06:57:22;;;;;;;10.65;4.80;;;9.20;63.00;;;;;;4964592;28;20035;-67
2021/04/09 06:59:48;;;;;;;7.93;4.32;;;10.40;60.60;;;;;;4964693;28;20107;-67
2021/04/09 07:02:18;;;;;;;7.72;4.20;;;10.60;59.50;;;;;;4964828;28;20434;-67
2021/04/09 07:04:45;;;;;;;19.73;5.22;;;9.90;58.80;;;;;;4964144;28;20257;-67
2021/04/09 07:07:14;;;;;;;11.88;5.40;;;10.60;59.50;;;;;;4964251;28;20114;-67
2021/04/09 07:09:41;;;;;;;13.27;4.93;;;10.50;59.60;;;;;;4963961;28;20367;-67
2021/04/09 07:12:19;;;;;;;13.68;4.97;;;10.60;60.70;;;;;;4964085;28;20027;-67
2021/04/09 07:14:53;;;;;;;10.55;5.13;;;11.50;59.50;;;;;;4964591;28;20141;-67
2021/04/09 07:17:26;;;;;;;9.15;4.95;;;11.20;58.70;;;;;;4964842;28;20031;-67
2021/04/09 07:20:06;;;;;;;11.23;4.95;;;12.20;56.90;;;;;;4963354;28;20050;-68
2021/04/09 07:22:31;;;;;;;13.23;5.50;;;12.50;55.40;;;;;;4959309;28;20034;-68
2021/04/09 07:25:08;;;;;;;15.45;5.65;;;13.00;54.70;;;;;;4967678;28;20648;-68
2021/04/09 07:27:35;;;;;;;57.97;9.05;;;12.10;58.10;;;;;;4968460;28;20046;-67
2021/04/09 07:30:02;;;;;;;8.95;5.15;;;10.10;60.00;;;;;;4968861;28;20051;-68
2021/04/09 07:32:29;;;;;;;22.80;5.35;;;8.80;63.30;;;;;;4969231;28;20035;-68
2021/04/09 07:35:13;;;;;;;13.60;5.63;;;8.00;64.70;;;;;;4968937;28;20039;-67
2021/04/09 07:37:59;;;;;;;9.15;4.72;;;7.50;65.70;;;;;;4969520;28;20500;-67
2021/04/09 07:40:31;;;;;;;9.77;5.38;;;7.30;65.10;;;;;;4968562;28;20042;-67
2021/04/09 07:42:59;;;;;;;12.23;4.68;;;7.10;65.40;;;;;;4969385;28;20509;-67
2021/04/09 07:45:27;;;;;;;9.90;4.38;;;7.00;65.70;;;;;;4984368;28;20038;-67
2021/04/09 07:47:58;;;;;;;9.63;4.53;;;7.00;66.10;;;;;;4988725;28;20061;-67
2021/04/09 07:50:41;;;;;;;10.15;4.68;;;7.00;67.00;;;;;;4970911;28;20031;-68
2021/04/09 07:53:18;;;;;;;9.73;5.07;;;7.00;67.40;;;;;;4963736;28;20029;-67
2021/04/09 07:55:44;;;;;;;8.95;4.93;;;7.10;67.10;;;;;;4968594;28;20031;-67
2021/04/09 07:58:19;;;;;;;10.98;5.30;;;7.40;66.90;;;;;;4967434;28;20560;-67
2021/04/09 08:00:48;;;;;;;7.30;5.07;;;7.40;66.70;;;;;;4968699;28;20043;-67
2021/04/09 08:03:40;;;;;;;10.63;4.63;;;7.30;66.30;;;;;;4968488;28;20027;-68
2021/04/09 08:06:09;;;;;;;8.15;4.82;;;7.50;66.90;;;;;;4964664;28;20039;-67
2021/04/09 08:08:37;;;;;;;10.68;5.72;;;7.50;66.50;;;;;;4968058;28;20039;-67
2021/04/09 08:11:27;;;;;;;11.52;5.07;;;7.50;66.30;;;;;;4968802;28;20073;-68
2021/04/09 08:14:02;;;;;;;12.45;5.00;;;7.50;66.20;;;;;;4968976;28;20035;-68
2021/04/09 08:16:27;;;;;;;11.40;4.68;;;7.70;66.50;;;;;;4979516;28;20482;-68
2021/04/09 08:19:05;;;;;;;7.38;4.40;;;7.90;66.60;;;;;;4968293;28;20057;-67
2021/04/09 08:21:34;;;;;;;9.15;5.03;;;8.00;64.90;;;;;;4968278;28;20043;-67
2021/04/09 08:24:01;;;;;;;12.30;5.53;;;8.10;65.40;;;;;;4968436;28;20035;-68
2021/04/09 08:26:28;;;;;;;10.60;4.80;;;8.20;65.00;;;;;;4977495;28;20421;-67
2021/04/09 08:28:56;;;;;;;11.48;4.70;;;8.20;64.60;;;;;;4978354;28;20122;-67
2021/04/09 08:31:22;;;;;;;8.18;4.65;;;8.00;64.40;;;;;;4987297;28;20109;-67
2021/04/09 08:33:48;;;;;;;9.38;5.35;;;8.20;64.80;;;;;;4974082;28;20531;-68
2021/04/09 08:36:15;;;;;;;10.27;5.13;;;8.50;65.80;;;;;;4966995;28;20031;-67
2021/04/09 08:38:42;;;;;;;12.05;5.03;;;8.70;65.70;;;;;;4970268;28;20023;-68
2021/04/09 08:41:09;;;;;;;9.45;4.90;;;8.70;64.50;;;;;;4971420;28;20049;-67
2021/04/09 08:43:35;;;;;;;10.75;5.35;;;8.80;65.30;;;;;;4967264;28;20490;-67
2021/04/09 08:46:01;;;;;;;11.40;5.38;;;9.00;64.70;;;;;;4968313;28;20038;-67
2021/04/09 08:48:28;;;;;;;10.23;5.18;;;9.00;65.50;;;;;;4966810;28;20035;-68
2021/04/09 08:50:54;;;;;;;12.40;5.18;;;9.10;65.20;;;;;;4967979;28;20023;-67
2021/04/09 08:53:30;;;;;;;10.05;5.70;;;9.40;64.50;;;;;;4967964;28;20022;-67
2021/04/09 08:55:56;;;;;;;9.32;4.55;;;11.90;60.80;;;;;;4969108;28;20466;-67
2021/04/09 08:58:22;;;;;;;12.25;5.65;;;13.90;58.30;;;;;;4967839;28;20019;-67
2021/04/09 09:00:50;;;;;;;9.32;5.53;;;14.40;56.10;;;;;;4966666;28;20046;-67
2021/04/09 09:03:31;;;;;;;11.43;6.00;;;14.40;57.10;;;;;;4967193;28;20041;-67
2021/04/09 09:06:03;;;;;;;9.85;5.10;;;14.70;56.70;;;;;;4969088;28;20031;-68
2021/04/09 09:08:43;;;;;;;14.05;5.32;;;15.00;54.80;;;;;;4970678;28;20054;-68
2021/04/09 09:11:11;;;;;;;10.38;5.95;;;14.80;54.80;;;;;;4967651;28;20603;-67
2021/04/09 09:13:47;;;;;;;7.95;5.32;;;14.80;55.20;;;;;;4967331;28;20054;-68
2021/04/09 09:16:17;;;;;;;10.90;5.63;;;14.50;56.10;;;;;;4966891;28;20093;-67
2021/04/09 09:18:54;;;;;;;11.63;5.80;;;14.10;56.50;;;;;;4974210;28;20027;-67
2021/04/09 09:21:24;;;;;;;9.10;5.30;;;14.80;56.40;;;;;;4967080;28;20061;-67
2021/04/09 09:24:16;;;;;;;11.45;5.60;;;14.80;56.10;;;;;;4951813;28;20897;-68
2021/04/09 09:26:48;;;;;;;10.25;5.70;;;15.40;56.10;;;;;;4966916;28;20373;-67
2021/04/09 09:29:20;;;;;;;12.15;5.75;;;15.70;55.70;;;;;;4959565;28;20026;-68
2021/04/09 09:32:00;;;;;;;10.60;5.60;;;15.50;55.40;;;;;;4966796;28;20162;-67
2021/04/09 09:34:27;;;;;;;11.23;5.93;;;14.30;57.70;;;;;;4966729;28;20030;-68
2021/04/09 09:37:12;;;;;;;10.07;5.57;;;13.50;58.20;;;;;;4967106;28;20033;-67
2021/04/09 09:40:02;;;;;;;8.60;5.55;;;13.00;59.50;;;;;;4966963;28;20045;-67
2021/04/09 09:42:30;;;;;;;10.32;5.20;;;12.80;59.30;;;;;;4979292;28;20525;-67
2021/04/09 09:44:58;;;;;;;11.27;6.00;;;12.20;59.90;;;;;;4986407;28;20031;-67
2021/04/09 09:47:31;;;;;;;10.82;5.50;;;12.00;61.00;;;;;;4972866;28;20517;-67
2021/04/09 09:50:10;;;;;;;12.75;5.75;;;12.10;61.00;;;;;;4965347;28;20042;-67
2021/04/09 09:52:41;;;;;;;14.02;5.75;;;12.00;62.20;;;;;;4970164;28;20022;-67
2021/04/09 09:55:09;;;;;;;11.25;5.85;;;11.90;61.70;;;;;;4967390;28;20062;-68
2021/04/09 09:57:49;;;;;;;12.68;5.15;;;11.70;62.20;;;;;;4966363;28;20027;-67
2021/04/09 10:00:24;;;;;;;12.10;6.03;;;11.70;61.90;;;;;;4947200;28;20039;-68
2021/04/09 10:02:50;;;;;;;13.15;6.38;;;11.80;62.40;;;;;;4966930;28;20030;-67
2021/04/09 10:05:17;;;;;;;11.88;5.40;;;12.00;62.60;;;;;;4966430;28;20497;-67
2021/04/09 10:07:44;;;;;;;9.80;5.30;;;12.00;61.30;;;;;;4968907;28;20037;-67
2021/04/09 10:10:10;;;;;;;11.60;5.43;;;11.90;61.40;;;;;;4985562;28;20054;-67
2021/04/09 10:12:36;;;;;;;12.68;5.97;;;11.90;61.50;;;;;;4984130;28;20035;-67
2021/04/09 10:15:02;;;;;;;14.73;5.38;;;12.30;61.70;;;;;;4966007;28;20599;-67
2021/04/09 10:17:27;;;;;;;11.15;5.63;;;12.30;61.10;;;;;;4966652;28;20019;-68
2021/04/09 10:20:25;;;;;;;9.32;5.28;;;12.10;61.40;;;;;;4966433;28;20043;-67
2021/04/09 10:22:54;;;;;;;10.70;4.22;;;12.30;62.10;;;;;;4965163;28;20045;-67
2021/04/09 10:25:28;;;;;;;10.38;5.25;;;12.60;62.20;;;;;;4965916;28;20069;-67
2021/04/09 10:27:53;;;;;;;12.90;6.33;;;12.50;62.30;;;;;;4966320;28;20053;-67
2021/04/09 10:30:28;;;;;;;11.05;6.07;;;12.70;62.40;;;;;;4966093;28;20624;-67
2021/04/09 10:32:54;;;;;;;18.85;5.70;;;13.10;62.60;;;;;;4966048;28;20355;-68
2021/04/09 10:35:22;;;;;;;10.68;4.40;;;13.50;63.20;;;;;;4969387;28;20088;-67
2021/04/09 10:37:48;;;;;;;8.88;4.18;;;13.50;62.70;;;;;;4965775;28;20140;-67
2021/04/09 10:40:14;;;;;;;8.02;4.30;;;13.10;62.30;;;;;;4965619;28;20635;-68
2021/04/09 10:42:39;;;;;;;9.35;5.70;;;13.20;63.50;;;;;;4965335;28;20034;-67
2021/04/09 10:45:21;;;;;;;14.20;4.72;;;13.20;63.50;;;;;;4969115;28;20038;-67
2021/04/09 10:47:48;;;;;;;11.63;4.45;;;13.20;63.20;;;;;;4965577;28;20034;-67
2021/04/09 10:50:14;;;;;;;8.57;4.05;;;13.40;64.30;;;;;;4966071;28;20081;-68
2021/04/09 10:52:39;;;;;;;9.63;3.72;;;13.40;63.90;;;;;;4965666;28;20023;-67
2021/04/09 10:55:06;;;;;;;11.73;3.80;;;13.40;63.30;;;;;;4966377;28;20023;-68
2021/04/09 10:57:35;;;;;;;8.63;3.33;;;13.20;63.90;;;;;;4965632;28;20038;-67
2021/04/09 11:00:03;;;;;;;11.35;3.60;;;13.10;64.60;;;;;;4964710;28;20089;-67
2021/04/09 11:02:29;;;;;;;8.38;3.17;;;13.50;63.50;;;;;;4965916;28;20030;-67
2021/04/09 11:04:59;;;;;;;9.90;3.15;;;13.90;63.10;;;;;;4966130;28;20397;-67
2021/04/09 11:07:45;;;;;;;7.07;3.65;;;14.30;63.30;;;;;;4973440;28;20594;-68
2021/04/09 11:10:31;;;;;;;10.05;3.10;;;14.70;62.00;;;;;;4969017;28;20101;-67
2021/04/09 11:12:56;;;;;;;17.33;3.10;;;14.40;61.90;;;;;;4965181;28;20592;-67
2021/04/09 11:15:22;;;;;;;6.63;2.50;;;14.10;62.30;;;;;;4965376;28;20078;-67
2021/04/09 11:17:53;;;;;;;9.95;3.38;;;14.30;61.70;;;;;;4969580;28;20034;-67
2021/04/09 11:20:28;;;;;;;8.15;3.08;;;14.70;62.90;;;;;;4967017;28;20097;-67
2021/04/09 11:23:01;;;;;;;7.25;3.33;;;14.70;61.60;;;;;;4964760;28;20031;-67
2021/04/09 11:25:35;;;;;;;34.70;4.47;;;14.70;62.00;;;;;;4965441;28;20037;-68
2021/04/09 11:28:01;;;;;;;;;;;14.80;61.10;;;;;;4965962;28;20027;-67
2021/04/09 11:30:32;;;;;;;6.82;3.05;;;15.10;62.20;;;;;;4974349;28;19910;-67
2021/04/09 11:32:58;;;;;;;5.70;2.92;;;15.00;61.20;;;;;;4971590;28;20074;-68
2021/04/09 11:35:25;;;;;;;5.50;2.58;;;14.80;62.00;;;;;;4965598;28;20054;-67
2021/04/09 11:37:55;;;;;;;12.80;3.35;;;14.50;61.30;;;;;;4965035;28;20439;-67
2021/04/09 11:40:43;;;;;;;9.60;4.45;;;14.50;61.40;;;;;;4968376;28;20576;-68
2021/04/09 11:43:10;;;;;;;7.05;2.50;;;14.50;61.70;;;;;;4965496;28;20038;-67
2021/04/09 11:45:43;;;;;;;6.28;2.92;;;14.40;61.60;;;;;;4964103;28;20819;-67
2021/04/09 11:48:30;;;;;;;7.88;2.90;;;14.40;62.00;;;;;;4965220;28;20474;-68
2021/04/09 11:51:21;;;;;;;15.63;3.63;;;14.30;62.70;;;;;;4958646;28;20102;-67
2021/04/09 11:54:10;;;;;;;9.00;2.95;;;14.30;63.00;;;;;;4968524;28;20124;-67
2021/04/09 11:56:47;;;;;;;10.13;3.30;;;14.40;62.60;;;;;;4984529;28;20096;-67
2021/04/09 11:59:18;;;;;;;7.80;2.88;;;14.20;62.90;;;;;;4964939;28;20390;-68
2021/04/09 12:01:45;;;;;;;5.97;3.00;;;14.10;62.40;;;;;;4965130;28;20042;-67
2021/04/09 12:04:30;;;;;;;5.30;2.35;;;14.10;62.90;;;;;;4966035;28;20022;-67
2021/04/09 12:06:56;;;;;;;9.23;3.95;;;14.20;62.70;;;;;;4957752;28;20058;-67
2021/04/09 12:09:22;;;;;;;6.07;2.15;;;14.40;62.50;;;;;;4964709;28;20877;-68
2021/04/09 12:11:47;;;;;;;10.02;2.60;;;14.40;61.80;;;;;;4967481;28;20039;-68
2021/04/09 12:14:13;;;;;;;6.30;2.05;;;14.20;62.70;;;;;;4969047;28;20019;-68
2021/04/09 12:16:39;;;;;;;5.18;2.13;;;14.30;63.00;;;;;;4969113;28;20122;-68
2021/04/09 12:19:04;;;;;;;7.47;2.67;;;14.40;63.00;;;;;;4968517;28;20031;-67
2021/04/09 12:21:30;;;;;;;8.82;2.30;;;14.40;63.20;;;;;;4968059;28;20097;-68
2021/04/09 12:23:56;;;;;;;8.05;2.78;;;14.50;63.50;;;;;;4967777;28;20038;-67
2021/04/09 12:26:24;;;;;;;7.20;2.25;;;14.50;63.10;;;;;;4976440;28;20054;-68
2021/04/09 12:28:50;;;;;;;16.40;2.78;;;14.50;63.30;;;;;;4971553;28;20370;-67
2021/04/09 12:31:16;;;;;;;12.88;2.88;;;14.40;63.10;;;;;;4968318;28;20022;-68
2021/04/09 12:33:41;;;;;;;7.60;2.42;;;14.40;63.20;;;;;;4968249;28;20414;-67
2021/04/09 12:36:07;;;;;;;5.43;3.10;;;14.50;63.60;;;;;;4969395;28;20030;-67
2021/04/09 12:38:33;;;;;;;9.85;2.83;;;14.60;63.60;;;;;;4987682;28;20060;-68
2021/04/09 12:40:59;;;;;;;9.30;2.83;;;14.60;63.40;;;;;;4974573;28;20047;-67
2021/04/09 12:43:24;;;;;;;8.23;2.35;;;14.40;63.50;;;;;;4968345;28;20031;-67
2021/04/09 12:45:50;;;;;;;8.38;2.67;;;14.30;63.90;;;;;;4982708;28;20026;-67
2021/04/09 12:48:16;;;;;;;9.60;2.53;;;14.30;63.10;;;;;;4971817;28;20458;-67
2021/04/09 12:50:42;;;;;;;7.60;2.40;;;14.60;63.50;;;;;;4967787;28;20026;-67
2021/04/09 12:53:07;;;;;;;6.13;2.83;;;14.80;63.50;;;;;;4967946;28;20030;-67
2021/04/09 12:55:33;;;;;;;6.85;3.13;;;14.70;63.20;;;;;;4985593;28;20026;-67
2021/04/09 12:57:59;;;;;;;7.95;2.40;;;14.70;63.40;;;;;;4971382;28;20035;-68
2021/04/09 13:00:24;;;;;;;11.98;3.35;;;14.50;63.60;;;;;;4969358;28;20470;-68